sensor_id;sensor_type;location;lat;lon;timestamp;pressure;altitude;pressure_sealevel;temperature;humidity
42771;BME280;28426;42.872;25.314;2023-11-21T00:01:06;96801.75;;;2.82;77.32
42771;BME280;28426;42.872;25.314;2023-11-21T00:03:37;96802.88;;;2.79;76.93
42771;BME280;28426;42.872;25.314;2023-11-21T00:06:11;96804.28;;;2.73;77.43
42771;BME280;28426;42.872;25.314;2023-11-21T00:08:42;96804.56;;;2.70;77.62
42771;BME280;28426;42.872;25.314;2023-11-21T00:11:12;96804.88;;;2.67;77.34
42771;BME280;28426;42.872;25.314;2023-11-21T00:13:43;96797.25;;;2.64;78.04
42771;BME280;28426;42.872;25.314;2023-11-21T00:16:17;96808.03;;;2.61;77.60
42771;BME280;28426;42.872;25.314;2023-11-21T00:18:50;96799.34;;;2.60;77.60
42771;BME280;28426;42.872;25.314;2023-11-21T00:21:23;96795.19;;;2.58;77.64
42771;BME280;28426;42.872;25.314;2023-11-21T00:23:54;96795.19;;;2.58;77.38
42771;BME280;28426;42.872;25.314;2023-11-21T00:26:25;96792.53;;;2.58;77.32
42771;BME280;28426;42.872;25.314;2023-11-21T00:29:01;96793.50;;;2.57;77.24
42771;BME280;28426;42.872;25.314;2023-11-21T00:31:35;96798.75;;;2.57;77.56
42771;BME280;28426;42.872;25.314;2023-11-21T00:34:06;96791.84;;;2.56;77.74
42771;BME280;28426;42.872;25.314;2023-11-21T00:36:40;96794.47;;;2.56;77.46
42771;BME280;28426;42.872;25.314;2023-11-21T00:39:11;96791.84;;;2.56;77.37
42771;BME280;28426;42.872;25.314;2023-11-21T00:41:42;96791.84;;;2.56;77.58
42771;BME280;28426;42.872;25.314;2023-11-21T00:44:12;96798.94;;;2.55;78.01
42771;BME280;28426;42.872;25.314;2023-11-21T00:46:43;96796.28;;;2.55;77.76
42771;BME280;28426;42.872;25.314;2023-11-21T00:49:15;96794.63;;;2.54;77.82
42771;BME280;28426;42.872;25.314;2023-11-21T00:51:48;96785.91;;;2.54;77.51
42771;BME280;28426;42.872;25.314;2023-11-21T00:54:19;96784.25;;;2.53;77.54
42771;BME280;28426;42.872;25.314;2023-11-21T00:56:50;96779.78;;;2.53;77.40
42771;BME280;28426;42.872;25.314;2023-11-21T00:59:22;96773.72;;;2.53;77.58
42771;BME280;28426;42.872;25.314;2023-11-21T01:01:53;96779.13;;;2.51;77.60
42771;BME280;28426;42.872;25.314;2023-11-21T01:04:27;96779.13;;;2.51;77.73
42771;BME280;28426;42.872;25.314;2023-11-21T01:07:02;96773.00;;;2.51;77.77
42771;BME280;28426;42.872;25.314;2023-11-21T01:09:33;96776.63;;;2.50;77.42
42771;BME280;28426;42.872;25.314;2023-11-21T01:12:04;96772.31;;;2.48;77.66
42771;BME280;28426;42.872;25.314;2023-11-21T01:14:35;96762.06;;;2.45;77.38
42771;BME280;28426;42.872;25.314;2023-11-21T01:17:06;96764.00;;;2.43;77.77
42771;BME280;28426;42.872;25.314;2023-11-21T01:19:37;96759.72;;;2.42;77.41
42771;BME280;28426;42.872;25.314;2023-11-21T01:22:10;96758.06;;;2.41;77.61
42771;BME280;28426;42.872;25.314;2023-11-21T01:24:41;96765.13;;;2.41;77.72
42771;BME280;28426;42.872;25.314;2023-11-21T01:27:12;96765.28;;;2.39;77.67
42771;BME280;28426;42.872;25.314;2023-11-21T01:29:44;96769.97;;;2.35;78.20
42771;BME280;28426;42.872;25.314;2023-11-21T01:32:15;96766.81;;;2.32;78.29
42771;BME280;28426;42.872;25.314;2023-11-21T01:34:47;96764.44;;;2.29;78.08
42771;BME280;28426;42.872;25.314;2023-11-21T01:37:20;96769.19;;;2.25;78.47
42771;BME280;28426;42.872;25.314;2023-11-21T01:39:52;96759.91;;;2.21;78.80
42771;BME280;28426;42.872;25.314;2023-11-21T01:42:23;96761.69;;;2.20;78.45
42771;BME280;28426;42.872;25.314;2023-11-21T01:44:57;96765.28;;;2.19;78.26
42771;BME280;28426;42.872;25.314;2023-11-21T01:47:28;96761.00;;;2.18;78.32
42771;BME280;28426;42.872;25.314;2023-11-21T01:50:00;96760.31;;;2.16;78.36
42771;BME280;28426;42.872;25.314;2023-11-21T01:52:35;96753.38;;;2.15;77.85
42771;BME280;28426;42.872;25.314;2023-11-21T01:55:08;96753.38;;;2.15;77.89
42771;BME280;28426;42.872;25.314;2023-11-21T01:57:47;96756.84;;;2.16;78.21
42771;BME280;28426;42.872;25.314;2023-11-21T02:00:19;96753.38;;;2.15;78.25
42771;BME280;28426;42.872;25.314;2023-11-21T02:02:51;96755.34;;;2.13;78.12
42771;BME280;28426;42.872;25.314;2023-11-21T02:05:22;96750.06;;;2.13;78.26
42771;BME280;28426;42.872;25.314;2023-11-21T02:07:56;96755.47;;;2.12;78.43
42771;BME280;28426;42.872;25.314;2023-11-21T02:10:28;96756.44;;;2.11;78.85
42771;BME280;28426;42.872;25.314;2023-11-21T02:12:59;96747.84;;;2.08;78.85
42771;BME280;28426;42.872;25.314;2023-11-21T02:15:30;96746.31;;;2.06;78.68
42771;BME280;28426;42.872;25.314;2023-11-21T02:18:01;96753.56;;;2.04;78.59
42771;BME280;28426;42.872;25.314;2023-11-21T02:20:34;96746.59;;;2.03;78.20
42771;BME280;28426;42.872;25.314;2023-11-21T02:23:09;96744.28;;;2.00;78.54
42771;BME280;28426;42.872;25.314;2023-11-21T02:25:40;96750.50;;;1.99;78.48
42771;BME280;28426;42.872;25.314;2023-11-21T02:28:11;96742.03;;;1.95;78.84
42771;BME280;28426;42.872;25.314;2023-11-21T02:30:44;96735.13;;;1.94;78.53
42771;BME280;28426;42.872;25.314;2023-11-21T02:33:22;96740.53;;;1.92;78.20
42771;BME280;28426;42.872;25.314;2023-11-21T02:35:53;96748.69;;;1.89;78.24
42771;BME280;28426;42.872;25.314;2023-11-21T02:38:27;96737.34;;;1.89;78.52
42771;BME280;28426;42.872;25.314;2023-11-21T02:40:58;96734.84;;;1.87;78.52
42771;BME280;28426;42.872;25.314;2023-11-21T02:43:29;96746.22;;;1.88;78.53
42771;BME280;28426;42.872;25.314;2023-11-21T02:46:00;96741.09;;;1.86;78.49
42771;BME280;28426;42.872;25.314;2023-11-21T02:48:31;96743.72;;;1.86;78.58
42771;BME280;28426;42.872;25.314;2023-11-21T02:51:01;96733.34;;;1.85;78.79
42771;BME280;28426;42.872;25.314;2023-11-21T02:53:36;96730.84;;;1.83;78.85
42771;BME280;28426;42.872;25.314;2023-11-21T02:56:08;96738.06;;;1.81;78.79
42771;BME280;28426;42.872;25.314;2023-11-21T02:58:41;96733.06;;;1.78;78.94
42771;BME280;28426;42.872;25.314;2023-11-21T03:01:12;96732.34;;;1.76;78.93
42771;BME280;28426;42.872;25.314;2023-11-21T03:03:44;96733.31;;;1.75;78.94
42771;BME280;28426;42.872;25.314;2023-11-21T03:06:19;96732.66;;;1.73;79.31
42771;BME280;28426;42.872;25.314;2023-11-21T03:08:52;96734.56;;;1.70;79.48
42771;BME280;28426;42.872;25.314;2023-11-21T03:11:23;96731.94;;;1.70;79.34
42771;BME280;28426;42.872;25.314;2023-11-21T03:13:54;96731.13;;;1.70;79.71
42771;BME280;28426;42.872;25.314;2023-11-21T03:16:24;96730.28;;;1.69;79.27
42771;BME280;28426;42.872;25.314;2023-11-21T03:18:56;96728.63;;;1.68;79.70
42771;BME280;28426;42.872;25.314;2023-11-21T03:21:27;96726.81;;;1.69;79.91
42771;BME280;28426;42.872;25.314;2023-11-21T03:24:01;96741.78;;;1.68;79.93
42771;BME280;28426;42.872;25.314;2023-11-21T03:26:32;96741.78;;;1.68;79.75
42771;BME280;28426;42.872;25.314;2023-11-21T03:29:03;96738.16;;;1.69;79.64
42771;BME280;28426;42.872;25.314;2023-11-21T03:31:33;96727.66;;;1.69;79.72
42771;BME280;28426;42.872;25.314;2023-11-21T03:34:04;96725.03;;;1.69;79.73
42771;BME280;28426;42.872;25.314;2023-11-21T03:36:35;96729.31;;;1.70;79.50
42771;BME280;28426;42.872;25.314;2023-11-21T03:39:08;96731.94;;;1.70;79.45
42771;BME280;28426;42.872;25.314;2023-11-21T03:41:39;96725.72;;;1.72;79.62
42771;BME280;28426;42.872;25.314;2023-11-21T03:44:10;96727.38;;;1.73;79.86
42771;BME280;28426;42.872;25.314;2023-11-21T03:46:41;96727.38;;;1.73;80.34
42771;BME280;28426;42.872;25.314;2023-11-21T03:49:12;96730.16;;;1.71;80.00
42771;BME280;28426;42.872;25.314;2023-11-21T03:51:43;96731.00;;;1.72;79.91
42771;BME280;28426;42.872;25.314;2023-11-21T03:54:16;96729.31;;;1.70;80.15
42771;BME280;28426;42.872;25.314;2023-11-21T03:56:47;96728.50;;;1.70;79.71
42771;BME280;28426;42.872;25.314;2023-11-21T03:59:17;96728.50;;;1.70;80.53
42771;BME280;28426;42.872;25.314;2023-11-21T04:01:48;96726.00;;;1.68;79.91
42771;BME280;28426;42.872;25.314;2023-11-21T04:04:19;96728.63;;;1.68;80.10
42771;BME280;28426;42.872;25.314;2023-11-21T04:06:50;96735.69;;;1.68;79.96
42771;BME280;28426;42.872;25.314;2023-11-21T04:09:24;96742.75;;;1.67;79.88
42771;BME280;28426;42.872;25.314;2023-11-21T04:11:55;96743.16;;;1.63;80.27
42771;BME280;28426;42.872;25.314;2023-11-21T04:14:27;96746.22;;;1.58;80.28
42771;BME280;28426;42.872;25.314;2023-11-21T04:16:58;96746.47;;;1.55;80.25
42771;BME280;28426;42.872;25.314;2023-11-21T04:19:28;96740.50;;;1.53;80.22
42771;BME280;28426;42.872;25.314;2023-11-21T04:21:59;96735.53;;;1.50;80.15
42771;BME280;28426;42.872;25.314;2023-11-21T04:24:32;96735.69;;;1.48;80.00
42771;BME280;28426;42.872;25.314;2023-11-21T04:27:03;96741.75;;;1.49;80.50
42771;BME280;28426;42.872;25.314;2023-11-21T04:29:34;96743.44;;;1.50;80.18
42771;BME280;28426;42.872;25.314;2023-11-21T04:32:05;96733.84;;;1.49;80.54
42771;BME280;28426;42.872;25.314;2023-11-21T04:34:36;96738.97;;;1.50;80.55
42771;BME280;28426;42.872;25.314;2023-11-21T04:37:09;96737.34;;;1.49;80.43
42771;BME280;28426;42.872;25.314;2023-11-21T04:39:42;96745.09;;;1.51;80.65
42771;BME280;28426;42.872;25.314;2023-11-21T04:42:13;96746.75;;;1.52;80.75
42771;BME280;28426;42.872;25.314;2023-11-21T04:44:44;96739.56;;;1.54;80.46
42771;BME280;28426;42.872;25.314;2023-11-21T04:47:14;96727.66;;;1.50;81.57
42771;BME280;28426;42.872;25.314;2023-11-21T04:49:47;96727.34;;;1.53;81.18
42771;BME280;28426;42.872;25.314;2023-11-21T04:52:18;96728.34;;;1.52;80.73
42771;BME280;28426;42.872;25.314;2023-11-21T04:54:51;96724.06;;;1.51;80.71
42771;BME280;28426;42.872;25.314;2023-11-21T04:57:25;96725.69;;;1.52;80.54
42771;BME280;28426;42.872;25.314;2023-11-21T04:59:56;96741.47;;;1.52;80.82
42771;BME280;28426;42.872;25.314;2023-11-21T05:02:26;96735.41;;;1.51;80.46
42771;BME280;28426;42.872;25.314;2023-11-21T05:05:02;96734.44;;;1.52;80.51
42771;BME280;28426;42.872;25.314;2023-11-21T05:07:35;96733.47;;;1.53;80.62
42771;BME280;28426;42.872;25.314;2023-11-21T05:10:09;96733.31;;;1.55;80.77
42771;BME280;28426;42.872;25.314;2023-11-21T05:12:42;96734.31;;;1.54;80.78
42771;BME280;28426;42.872;25.314;2023-11-21T05:15:14;96738.59;;;1.55;81.33
42771;BME280;28426;42.872;25.314;2023-11-21T05:17:45;96748.25;;;1.54;81.39
42771;BME280;28426;42.872;25.314;2023-11-21T05:20:18;96743.13;;;1.53;81.41
42771;BME280;28426;42.872;25.314;2023-11-21T05:22:48;96748.41;;;1.53;80.99
42771;BME280;28426;42.872;25.314;2023-11-21T05:25:22;96754.50;;;1.53;81.27
42771;BME280;28426;42.872;25.314;2023-11-21T05:27:53;96759.63;;;1.55;81.57
42771;BME280;28426;42.872;25.314;2023-11-21T05:30:24;96766.41;;;1.58;81.53
42771;BME280;28426;42.872;25.314;2023-11-21T05:32:54;96768.91;;;1.59;81.45
42771;BME280;28426;42.872;25.314;2023-11-21T05:35:25;96774.16;;;1.59;80.82
42771;BME280;28426;42.872;25.314;2023-11-21T05:37:56;96771.41;;;1.61;80.81
42771;BME280;28426;42.872;25.314;2023-11-21T05:40:29;96758.09;;;1.62;81.22
42771;BME280;28426;42.872;25.314;2023-11-21T05:43:00;96762.41;;;1.63;80.95
42771;BME280;28426;42.872;25.314;2023-11-21T05:45:32;96755.06;;;1.67;81.42
42771;BME280;28426;42.872;25.314;2023-11-21T05:48:03;96754.81;;;1.70;81.25
42771;BME280;28426;42.872;25.314;2023-11-21T05:50:34;96745.66;;;1.74;81.55
42771;BME280;28426;42.872;25.314;2023-11-21T05:53:05;96747.88;;;1.79;81.24
42771;BME280;28426;42.872;25.314;2023-11-21T05:55:40;96744.84;;;1.83;81.58
42771;BME280;28426;42.872;25.314;2023-11-21T05:58:11;96749.66;;;1.88;81.36
42771;BME280;28426;42.872;25.314;2023-11-21T06:00:42;96746.50;;;1.94;81.34
42771;BME280;28426;42.872;25.314;2023-11-21T06:03:13;96741.78;;;1.98;80.20
42771;BME280;28426;42.872;25.314;2023-11-21T06:05:45;96746.22;;;1.88;78.24
42771;BME280;28426;42.872;25.314;2023-11-21T06:08:16;96743.13;;;1.53;76.17
42771;BME280;28426;42.872;25.314;2023-11-21T06:10:49;96735.72;;;1.07;75.62
42771;BME280;28426;42.872;25.314;2023-11-21T06:13:20;96746.25;;;0.66;77.05
42771;BME280;28426;42.872;25.314;2023-11-21T06:15:52;96744.84;;;0.41;79.71
42771;BME280;28426;42.872;25.314;2023-11-21T06:18:22;96745.19;;;0.26;80.47
42771;BME280;28426;42.872;25.314;2023-11-21T06:20:53;96749.81;;;0.12;81.08
42771;BME280;28426;42.872;25.314;2023-11-21T06:23:24;96739.84;;;0.06;82.44
42771;BME280;28426;42.872;25.314;2023-11-21T06:25:57;96747.94;;;0.03;82.51
42771;BME280;28426;42.872;25.314;2023-11-21T06:28:28;96747.75;;;-0.05;82.33
42771;BME280;28426;42.872;25.314;2023-11-21T06:30:59;96741.25;;;-0.11;83.28
42771;BME280;28426;42.872;25.314;2023-11-21T06:33:32;96742.19;;;-0.12;83.67
42771;BME280;28426;42.872;25.314;2023-11-21T06:36:04;96738.47;;;-0.09;84.45
42771;BME280;28426;42.872;25.314;2023-11-21T06:38:35;96739.19;;;-0.07;84.53
42771;BME280;28426;42.872;25.314;2023-11-21T06:41:08;96741.28;;;-0.01;84.88
42771;BME280;28426;42.872;25.314;2023-11-21T06:43:41;96747.47;;;0.09;85.73
42771;BME280;28426;42.872;25.314;2023-11-21T06:46:14;96733.56;;;0.19;85.60
42771;BME280;28426;42.872;25.314;2023-11-21T06:48:45;96734.19;;;0.32;86.59
42771;BME280;28426;42.872;25.314;2023-11-21T06:51:17;96732.34;;;0.54;88.44
42771;BME280;28426;42.872;25.314;2023-11-21T06:53:48;96731.66;;;0.83;89.35
42771;BME280;28426;42.872;25.314;2023-11-21T06:56:21;96727.88;;;1.17;90.28
42771;BME280;28426;42.872;25.314;2023-11-21T06:58:53;96732.34;;;1.56;91.03
42771;BME280;28426;42.872;25.314;2023-11-21T07:01:24;96726.25;;;1.95;90.95
42771;BME280;28426;42.872;25.314;2023-11-21T07:03:55;96723.69;;;2.33;90.21
42771;BME280;28426;42.872;25.314;2023-11-21T07:06:26;96729.13;;;2.69;89.60
42771;BME280;28426;42.872;25.314;2023-11-21T07:08:57;96725.81;;;3.05;88.32
42771;BME280;28426;42.872;25.314;2023-11-21T07:11:31;96733.06;;;3.39;87.76
42771;BME280;28426;42.872;25.314;2023-11-21T07:14:02;96733.56;;;3.71;86.90
42771;BME280;28426;42.872;25.314;2023-11-21T07:16:35;96736.31;;;4.06;86.61
42771;BME280;28426;42.872;25.314;2023-11-21T07:19:06;96721.84;;;4.37;85.76
42771;BME280;28426;42.872;25.314;2023-11-21T07:21:38;96729.44;;;4.66;84.58
42771;BME280;28426;42.872;25.314;2023-11-21T07:24:09;96724.16;;;4.93;83.47
42771;BME280;28426;42.872;25.314;2023-11-21T07:26:43;96723.25;;;5.19;82.54
42771;BME280;28426;42.872;25.314;2023-11-21T07:29:13;96723.63;;;5.41;80.15
42771;BME280;28426;42.872;25.314;2023-11-21T07:31:44;96726.97;;;5.59;78.94
42771;BME280;28426;42.872;25.314;2023-11-21T07:34:15;96727.19;;;5.83;79.94
42771;BME280;28426;42.872;25.314;2023-11-21T07:36:46;96723.53;;;5.92;79.00
42771;BME280;28426;42.872;25.314;2023-11-21T07:39:17;96712.78;;;6.02;78.53
42771;BME280;28426;42.872;25.314;2023-11-21T07:41:50;96713.63;;;6.11;78.17
42771;BME280;28426;42.872;25.314;2023-11-21T07:44:21;96706.38;;;6.21;77.35
42771;BME280;28426;42.872;25.314;2023-11-21T07:46:52;96708.81;;;6.31;76.22
42771;BME280;28426;42.872;25.314;2023-11-21T07:49:25;96705.50;;;6.46;75.85
42771;BME280;28426;42.872;25.314;2023-11-21T07:51:55;96709.94;;;6.53;73.54
42771;BME280;28426;42.872;25.314;2023-11-21T07:54:26;96704.47;;;6.63;75.75
42771;BME280;28426;42.872;25.314;2023-11-21T07:57:00;96698.09;;;6.81;73.68
42771;BME280;28426;42.872;25.314;2023-11-21T07:59:31;96693.75;;;6.88;73.00
42771;BME280;28426;42.872;25.314;2023-11-21T08:02:02;96695.34;;;7.06;74.90
42771;BME280;28426;42.872;25.314;2023-11-21T08:04:33;96689.09;;;7.30;72.23
42771;BME280;28426;42.872;25.314;2023-11-21T08:07:04;96687.16;;;7.48;69.97
42771;BME280;28426;42.872;25.314;2023-11-21T08:09:35;96692.03;;;7.67;72.25
42771;BME280;28426;42.872;25.314;2023-11-21T08:12:08;96688.38;;;7.92;68.97
42771;BME280;28426;42.872;25.314;2023-11-21T08:14:39;96692.72;;;8.08;67.24
42771;BME280;28426;42.872;25.314;2023-11-21T08:17:11;96692.00;;;8.14;67.99
42771;BME280;28426;42.872;25.314;2023-11-21T08:19:44;96700.47;;;8.33;68.12
42771;BME280;28426;42.872;25.314;2023-11-21T08:22:17;96696.31;;;8.54;65.60
42771;BME280;28426;42.872;25.314;2023-11-21T08:24:48;96693.84;;;8.67;66.12
42771;BME280;28426;42.872;25.314;2023-11-21T08:27:22;96676.28;;;8.88;65.63
42771;BME280;28426;42.872;25.314;2023-11-21T08:29:53;96692.16;;;9.11;62.97
42771;BME280;28426;42.872;25.314;2023-11-21T08:32:24;96689.03;;;9.23;60.59
42771;BME280;28426;42.872;25.314;2023-11-21T08:34:55;96678.97;;;9.40;61.21
42771;BME280;28426;42.872;25.314;2023-11-21T08:37:26;96678.59;;;9.65;58.97
42771;BME280;28426;42.872;25.314;2023-11-21T08:39:58;96669.22;;;9.91;59.82
42771;BME280;28426;42.872;25.314;2023-11-21T08:42:32;96669.44;;;10.18;55.91
42771;BME280;28426;42.872;25.314;2023-11-21T08:45:04;96672.00;;;10.33;52.51
42771;BME280;28426;42.872;25.314;2023-11-21T08:47:36;96663.31;;;10.46;53.08
42771;BME280;28426;42.872;25.314;2023-11-21T08:50:08;96673.53;;;10.71;50.65
42771;BME280;28426;42.872;25.314;2023-11-21T08:52:39;96662.69;;;10.79;49.95
42771;BME280;28426;42.872;25.314;2023-11-21T08:55:11;96666.34;;;10.78;50.44
42771;BME280;28426;42.872;25.314;2023-11-21T08:57:46;96667.44;;;10.91;50.34
42771;BME280;28426;42.872;25.314;2023-11-21T09:00:17;96656.81;;;10.97;49.24
42771;BME280;28426;42.872;25.314;2023-11-21T09:02:49;96663.38;;;10.95;50.20
42771;BME280;28426;42.872;25.314;2023-11-21T09:05:20;96654.81;;;11.06;50.27
42771;BME280;28426;42.872;25.314;2023-11-21T09:07:50;96654.41;;;11.16;50.27
42771;BME280;28426;42.872;25.314;2023-11-21T09:10:21;96645.44;;;11.31;49.76
42771;BME280;28426;42.872;25.314;2023-11-21T09:12:55;96640.50;;;11.34;49.13
42771;BME280;28426;42.872;25.314;2023-11-21T09:15:26;96645.81;;;11.21;49.63
42771;BME280;28426;42.872;25.314;2023-11-21T09:17:57;96637.81;;;11.21;51.13
42771;BME280;28426;42.872;25.314;2023-11-21T09:20:29;96636.00;;;11.28;49.42
42771;BME280;28426;42.872;25.314;2023-11-21T09:23:00;96626.72;;;11.24;49.36
42771;BME280;28426;42.872;25.314;2023-11-21T09:25:31;96638.22;;;11.31;49.77
42771;BME280;28426;42.872;25.314;2023-11-21T09:28:05;96618.31;;;11.41;48.95
42771;BME280;28426;42.872;25.314;2023-11-21T09:30:36;96620.19;;;11.40;49.53
42771;BME280;28426;42.872;25.314;2023-11-21T09:33:07;96623.47;;;11.49;49.54
42771;BME280;28426;42.872;25.314;2023-11-21T09:35:38;96614.44;;;11.50;48.99
42771;BME280;28426;42.872;25.314;2023-11-21T09:38:11;96609.53;;;11.54;49.54
42771;BME280;28426;42.872;25.314;2023-11-21T09:40:42;96605.63;;;11.63;48.44
42771;BME280;28426;42.872;25.314;2023-11-21T09:43:17;96600.28;;;11.56;48.36
42771;BME280;28426;42.872;25.314;2023-11-21T09:45:55;96595.34;;;11.53;49.61
42771;BME280;28426;42.872;25.314;2023-11-21T09:48:28;96591.22;;;11.64;48.92
42771;BME280;28426;42.872;25.314;2023-11-21T09:50:59;96584.25;;;11.70;47.95
42771;BME280;28426;42.872;25.314;2023-11-21T09:53:32;96579.72;;;11.77;47.85
42771;BME280;28426;42.872;25.314;2023-11-21T09:56:05;96572.72;;;11.89;46.88
42771;BME280;28426;42.872;25.314;2023-11-21T09:58:39;96567.16;;;11.98;46.99
42771;BME280;28426;42.872;25.314;2023-11-21T10:01:11;96573.13;;;12.13;46.76
42771;BME280;28426;42.872;25.314;2023-11-21T10:03:44;96569.44;;;12.14;45.61
42771;BME280;28426;42.872;25.314;2023-11-21T10:06:15;96563.28;;;12.07;45.41
42771;BME280;28426;42.872;25.314;2023-11-21T10:08:48;96558.75;;;12.14;46.02
42771;BME280;28426;42.872;25.314;2023-11-21T10:11:24;96557.91;;;12.21;44.88
42771;BME280;28426;42.872;25.314;2023-11-21T10:13:58;96560.78;;;12.26;45.77
42771;BME280;28426;42.872;25.314;2023-11-21T10:16:32;96557.47;;;12.37;44.73
42771;BME280;28426;42.872;25.314;2023-11-21T10:19:04;96555.41;;;12.33;43.68
42771;BME280;28426;42.872;25.314;2023-11-21T10:21:38;96546.16;;;12.22;44.26
42771;BME280;28426;42.872;25.314;2023-11-21T10:24:09;96541.44;;;12.24;45.13
42771;BME280;28426;42.872;25.314;2023-11-21T10:26:40;96530.28;;;12.40;43.90
42771;BME280;28426;42.872;25.314;2023-11-21T10:29:23;96527.13;;;12.57;44.68
42771;BME280;28426;42.872;25.314;2023-11-21T10:31:55;96531.81;;;12.75;43.98
42771;BME280;28426;42.872;25.314;2023-11-21T10:34:26;96527.19;;;12.89;44.00
42771;BME280;28426;42.872;25.314;2023-11-21T10:36:57;96514.22;;;13.25;44.48
42771;BME280;28426;42.872;25.314;2023-11-21T10:39:28;96512.50;;;14.07;43.93
42771;BME280;28426;42.872;25.314;2023-11-21T10:41:59;96511.31;;;15.09;42.68
42771;BME280;28426;42.872;25.314;2023-11-21T10:44:32;96500.59;;;15.99;41.00
42771;BME280;28426;42.872;25.314;2023-11-21T10:47:08;96503.63;;;16.68;39.66
42771;BME280;28426;42.872;25.314;2023-11-21T10:49:39;96494.34;;;17.17;38.71
42771;BME280;28426;42.872;25.314;2023-11-21T10:52:10;96490.03;;;17.50;37.76
42771;BME280;28426;42.872;25.314;2023-11-21T10:54:45;96488.13;;;17.68;37.34
42771;BME280;28426;42.872;25.314;2023-11-21T10:57:18;96481.78;;;17.74;37.08
42771;BME280;28426;42.872;25.314;2023-11-21T10:59:54;96480.06;;;17.68;37.05
42771;BME280;28426;42.872;25.314;2023-11-21T11:02:25;96473.69;;;17.39;37.72
42771;BME280;28426;42.872;25.314;2023-11-21T11:05:00;96474.22;;;17.07;38.75
42771;BME280;28426;42.872;25.314;2023-11-21T11:07:34;96465.06;;;16.79;39.71
42771;BME280;28426;42.872;25.314;2023-11-21T11:10:08;96456.50;;;16.53;39.97
42771;BME280;28426;42.872;25.314;2023-11-21T11:12:41;96460.28;;;16.28;40.71
42771;BME280;28426;42.872;25.314;2023-11-21T11:15:15;96446.53;;;16.13;41.67
42771;BME280;28426;42.872;25.314;2023-11-21T11:17:47;96446.78;;;15.99;41.67
42771;BME280;28426;42.872;25.314;2023-11-21T11:20:18;96448.06;;;15.85;41.10
42771;BME280;28426;42.872;25.314;2023-11-21T11:23:04;96452.63;;;15.72;42.08
42771;BME280;28426;42.872;25.314;2023-11-21T11:25:55;96445.03;;;15.57;41.85
42771;BME280;28426;42.872;25.314;2023-11-21T11:28:37;96447.25;;;15.48;43.40
42771;BME280;28426;42.872;25.314;2023-11-21T11:31:24;96436.00;;;15.39;43.92
42771;BME280;28426;42.872;25.314;2023-11-21T11:33:59;96427.59;;;15.36;44.28
42771;BME280;28426;42.872;25.314;2023-11-21T11:36:39;96423.97;;;15.30;43.72
42771;BME280;28426;42.872;25.314;2023-11-21T11:39:35;96422.78;;;15.26;43.64
42771;BME280;28426;42.872;25.314;2023-11-21T11:42:07;96426.41;;;15.20;44.03
42771;BME280;28426;42.872;25.314;2023-11-21T11:44:51;96422.44;;;15.10;43.76
42771;BME280;28426;42.872;25.314;2023-11-21T11:47:28;96418.78;;;15.04;44.53
42771;BME280;28426;42.872;25.314;2023-11-21T11:50:04;96412.47;;;14.99;44.79
42771;BME280;28426;42.872;25.314;2023-11-21T11:52:41;96407.19;;;14.92;44.82
42771;BME280;28426;42.872;25.314;2023-11-21T11:55:14;96398.66;;;14.83;44.49
42771;BME280;28426;42.872;25.314;2023-11-21T11:57:47;96397.94;;;14.76;44.98
42771;BME280;28426;42.872;25.314;2023-11-21T12:00:38;96388.88;;;14.70;45.25
42771;BME280;28426;42.872;25.314;2023-11-21T12:03:13;96388.75;;;14.65;45.56
42771;BME280;28426;42.872;25.314;2023-11-21T12:05:46;96379.91;;;14.64;45.36
42771;BME280;28426;42.872;25.314;2023-11-21T12:08:20;96363.88;;;14.58;45.28
42771;BME280;28426;42.872;25.314;2023-11-21T12:10:58;96369.38;;;14.63;45.58
42771;BME280;28426;42.872;25.314;2023-11-21T12:13:29;96361.56;;;14.61;44.98
42771;BME280;28426;42.872;25.314;2023-11-21T12:16:04;96360.72;;;14.61;45.54
42771;BME280;28426;42.872;25.314;2023-11-21T12:18:38;96367.59;;;14.57;45.45
42771;BME280;28426;42.872;25.314;2023-11-21T12:21:08;96376.72;;;14.56;45.92
42771;BME280;28426;42.872;25.314;2023-11-21T12:23:39;96372.16;;;14.56;46.02
42771;BME280;28426;42.872;25.314;2023-11-21T12:26:10;96374.84;;;14.56;46.14
42771;BME280;28426;42.872;25.314;2023-11-21T12:28:41;96365.16;;;14.55;46.08
42771;BME280;28426;42.872;25.314;2023-11-21T12:31:12;96361.44;;;14.56;46.10
42771;BME280;28426;42.872;25.314;2023-11-21T12:33:51;96367.84;;;14.55;45.88
42771;BME280;28426;42.872;25.314;2023-11-21T12:36:26;96368.06;;;14.54;46.28
42771;BME280;28426;42.872;25.314;2023-11-21T12:38:58;96362.94;;;14.52;46.35
42771;BME280;28426;42.872;25.314;2023-11-21T12:41:30;96360.69;;;14.49;46.17
42771;BME280;28426;42.872;25.314;2023-11-21T12:44:00;96365.72;;;14.45;46.34
42771;BME280;28426;42.872;25.314;2023-11-21T12:46:31;96362.91;;;14.40;46.30
42771;BME280;28426;42.872;25.314;2023-11-21T12:49:05;96366.47;;;14.34;46.54
42771;BME280;28426;42.872;25.314;2023-11-21T12:51:37;96369.47;;;14.25;46.61
42771;BME280;28426;42.872;25.314;2023-11-21T12:54:08;96368.75;;;14.18;46.63
42771;BME280;28426;42.872;25.314;2023-11-21T12:56:40;96370.69;;;14.11;47.16
42771;BME280;28426;42.872;25.314;2023-11-21T12:59:12;96364.59;;;14.04;47.34
42771;BME280;28426;42.872;25.314;2023-11-21T13:01:46;96365.50;;;13.97;47.45
42771;BME280;28426;42.872;25.314;2023-11-21T13:04:29;96357.31;;;13.92;47.78
42771;BME280;28426;42.872;25.314;2023-11-21T13:07:06;96337.19;;;13.83;47.64
42771;BME280;28426;42.872;25.314;2023-11-21T13:09:42;96354.34;;;13.82;48.10
42771;BME280;28426;42.872;25.314;2023-11-21T13:12:13;96361.19;;;13.78;48.09
42771;BME280;28426;42.872;25.314;2023-11-21T13:14:46;96351.34;;;13.71;48.53
42771;BME280;28426;42.872;25.314;2023-11-21T13:17:17;96349.94;;;13.69;48.74
42771;BME280;28426;42.872;25.314;2023-11-21T13:19:54;96355.97;;;13.64;48.93
42771;BME280;28426;42.872;25.314;2023-11-21T13:22:25;96349.75;;;13.45;47.88
42771;BME280;28426;42.872;25.314;2023-11-21T13:24:56;96337.84;;;12.71;48.50